createdAt,value
2023-05-13T00:00:13.183Z,6.20
2023-05-13T00:03:51.250Z,7.20
2023-05-13T00:07:18.069Z,7.90
2023-05-13T00:10:45.504Z,8.00
2023-05-13T00:14:12.987Z,8.50
2023-05-13T00:17:42.800Z,7.70
2023-05-13T00:21:10.752Z,8.20
2023-05-13T00:24:37.701Z,8.00
2023-05-13T00:28:04.399Z,8.30
2023-05-13T00:31:30.986Z,7.60
2023-05-13T00:34:58.323Z,7.90
2023-05-13T00:38:25.395Z,7.40
2023-05-13T00:41:52.147Z,7.90
2023-05-13T00:45:19.612Z,7.50
2023-05-13T00:48:47.568Z,7.10
2023-05-13T00:52:15.852Z,7.70
2023-05-13T00:55:46.601Z,8.00
2023-05-13T00:59:13.978Z,7.30
2023-05-13T01:02:52.341Z,7.90
2023-05-13T01:06:25.368Z,7.60
2023-05-13T01:13:28.690Z,7.20
2023-05-13T01:17:02.794Z,7.70
2023-05-13T01:23:56.438Z,7.80
2023-05-13T01:27:28.353Z,8.50
2023-05-13T01:30:56.491Z,7.80
2023-05-13T01:34:27.920Z,7.90
2023-05-13T01:37:54.969Z,8.10
2023-05-13T01:41:22.271Z,8.40
2023-05-13T01:44:49.326Z,8.50
2023-05-13T01:48:18.890Z,8.40
2023-05-13T01:51:47.826Z,7.90
2023-05-13T01:55:14.676Z,8.30
2023-05-13T01:58:44.212Z,8.20
2023-05-13T02:02:11.432Z,8.70
2023-05-13T02:05:38.864Z,9.20
2023-05-13T02:09:08.457Z,8.90
2023-05-13T02:12:38.586Z,8.50
2023-05-13T02:16:06.480Z,9.20
2023-05-13T02:19:34.126Z,8.30
2023-05-13T02:23:00.919Z,8.30
2023-05-13T02:26:28.035Z,8.90
2023-05-13T02:29:55.135Z,9.60
2023-05-13T02:33:23.616Z,9.70
2023-05-13T02:36:51.806Z,9.30
2023-05-13T02:40:19.128Z,9.80
2023-05-13T02:43:47.954Z,10.40
2023-05-13T02:47:17.570Z,10.40
2023-05-13T02:50:44.658Z,10.00
2023-05-13T02:54:12.060Z,10.50
2023-05-13T02:57:38.955Z,9.80
2023-05-13T03:01:07.016Z,9.40
2023-05-13T03:04:35.093Z,10.50
2023-05-13T03:08:01.748Z,9.80
2023-05-13T03:11:28.756Z,10.50
2023-05-13T03:14:55.909Z,11.20
2023-05-13T03:18:23.013Z,11.00
2023-05-13T03:21:53.575Z,9.80
2023-05-13T03:25:21.176Z,10.80
2023-05-13T03:28:52.214Z,10.90
2023-05-13T03:32:20.206Z,11.40
2023-05-13T03:35:49.300Z,11.10
2023-05-13T03:39:17.966Z,11.90
2023-05-13T03:42:44.944Z,11.80
2023-05-13T03:46:12.588Z,10.70
2023-05-13T03:49:39.554Z,10.90
2023-05-13T03:53:07.391Z,11.00
2023-05-13T03:56:36.006Z,11.90
2023-05-13T04:00:03.849Z,11.40
2023-05-13T04:03:41.556Z,10.70
2023-05-13T04:07:09.907Z,11.60
2023-05-13T04:10:36.881Z,10.70
2023-05-13T04:14:04.450Z,10.90
2023-05-13T04:17:31.233Z,11.10
2023-05-13T04:21:01.093Z,11.90
2023-05-13T04:24:28.676Z,11.10
2023-05-13T04:27:55.886Z,10.90
2023-05-13T04:31:28.462Z,11.40
2023-05-13T04:34:56.365Z,10.40
2023-05-13T04:38:26.185Z,11.00
2023-05-13T04:41:55.600Z,11.90
2023-05-13T04:45:24.240Z,10.90
2023-05-13T04:48:51.095Z,10.70
2023-05-13T04:52:19.915Z,11.10
2023-05-13T04:55:48.083Z,10.10
2023-05-13T04:59:14.695Z,9.80
2023-05-13T05:02:41.343Z,9.80
2023-05-13T05:06:10.640Z,9.70
2023-05-13T05:09:37.695Z,10.20
2023-05-13T05:13:05.398Z,10.80
2023-05-13T05:16:34.151Z,10.40
2023-05-13T05:20:01.019Z,10.70
2023-05-13T05:23:28.169Z,10.10
2023-05-13T05:26:57.117Z,10.80
2023-05-13T05:30:24.446Z,9.50
2023-05-13T05:34:01.224Z,10.20
2023-05-13T05:37:28.506Z,10.30
2023-05-13T05:40:55.381Z,10.00
2023-05-13T05:44:22.313Z,9.40
2023-05-13T05:47:48.844Z,9.70
2023-05-13T05:51:17.444Z,9.80
2023-05-13T05:54:44.708Z,9.30
2023-05-13T05:58:16.692Z,9.80
2023-05-13T06:01:43.763Z,9.20
2023-05-13T06:05:11.988Z,8.40
2023-05-13T06:08:39.547Z,8.70
2023-05-13T06:12:08.703Z,7.40
2023-05-13T06:15:35.735Z,7.00
2023-05-13T06:19:02.574Z,6.70
2023-05-13T06:22:30.060Z,7.00
2023-05-13T06:25:59.025Z,6.70
2023-05-13T06:29:26.112Z,7.30
2023-05-13T06:33:01.628Z,7.40
2023-05-13T06:36:30.721Z,7.90
2023-05-13T06:39:58.861Z,8.10
2023-05-13T06:43:26.542Z,8.10
2023-05-13T06:46:57.380Z,7.30
2023-05-13T06:50:25.502Z,6.10
2023-05-13T06:53:53.726Z,6.30
2023-05-13T06:57:25.211Z,6.00
2023-05-13T07:01:02.051Z,5.70
2023-05-13T07:04:30.652Z,6.70
2023-05-13T07:07:57.172Z,6.20
2023-05-13T07:11:24.661Z,6.30
2023-05-13T07:14:52.228Z,4.60
2023-05-13T07:18:18.866Z,4.90
2023-05-13T07:21:45.476Z,4.80
2023-05-13T07:25:13.828Z,5.40
2023-05-13T07:28:41.246Z,5.20
2023-05-13T07:32:10.231Z,5.50
2023-05-13T07:35:41.007Z,5.00
2023-05-13T07:39:09.006Z,5.10
2023-05-13T07:42:36.129Z,6.30
2023-05-13T07:46:06.027Z,5.70
2023-05-13T07:49:35.348Z,5.70
2023-05-13T07:53:01.969Z,5.80
2023-05-13T07:56:30.081Z,5.40
2023-05-13T08:00:02.032Z,4.00
2023-05-13T08:03:29.340Z,4.80
2023-05-13T08:06:56.609Z,4.30
2023-05-13T08:10:24.583Z,5.40
2023-05-13T08:13:51.744Z,4.70
2023-05-13T08:17:20.040Z,4.60
2023-05-13T08:20:47.360Z,4.20
2023-05-13T08:24:16.636Z,4.20
2023-05-13T08:27:47.221Z,4.00
2023-05-13T08:31:17.352Z,4.20
2023-05-13T08:34:45.740Z,4.40
2023-05-13T08:38:13.152Z,4.00
2023-05-13T08:41:42.473Z,4.20
2023-05-13T08:45:12.751Z,3.60
2023-05-13T08:48:40.916Z,3.20
2023-05-13T08:52:08.973Z,3.50
2023-05-13T08:55:37.873Z,3.30
2023-05-13T08:59:05.722Z,3.30
2023-05-13T09:02:32.954Z,3.20
2023-05-13T09:06:01.606Z,3.90
2023-05-13T09:09:29.836Z,3.90
2023-05-13T09:12:57.180Z,3.90
2023-05-13T09:16:29.395Z,3.40
2023-05-13T09:19:57.510Z,3.40
2023-05-13T09:23:28.682Z,3.10
2023-05-13T09:26:56.761Z,2.60
2023-05-13T09:30:24.988Z,2.60
2023-05-13T09:33:56.698Z,2.90
2023-05-13T09:37:26.757Z,3.00
2023-05-13T09:40:58.629Z,3.10
2023-05-13T09:44:26.391Z,3.20
2023-05-13T09:47:57.492Z,3.00
2023-05-13T09:51:28.598Z,3.30
2023-05-13T09:54:59.927Z,3.00
2023-05-13T09:58:28.287Z,2.70
2023-05-13T10:02:00.321Z,2.70
2023-05-13T10:05:27.399Z,3.30
2023-05-13T10:08:55.488Z,3.00
2023-05-13T10:12:23.837Z,2.60
2023-05-13T10:15:53.199Z,2.70
2023-05-13T10:19:21.522Z,3.80
2023-05-13T10:22:51.014Z,2.80
2023-05-13T10:26:17.779Z,3.10
2023-05-13T10:29:47.091Z,2.70
2023-05-13T10:33:14.060Z,2.70
2023-05-13T10:36:59.541Z,2.20
2023-05-13T10:40:59.149Z,3.20
2023-05-13T10:44:27.049Z,5.10
2023-05-13T10:47:56.416Z,3.40
2023-05-13T10:51:26.864Z,2.10
2023-05-13T10:55:03.815Z,2.00
2023-05-13T10:58:37.038Z,2.60
2023-05-13T11:02:21.513Z,2.00
2023-05-13T11:06:04.741Z,2.20
2023-05-13T11:13:25.227Z,2.30
2023-05-13T11:17:08.524Z,1.90
2023-05-13T11:20:51.706Z,2.50
2023-05-13T11:24:22.180Z,2.40
2023-05-13T11:27:48.919Z,1.70
2023-05-13T11:31:21.060Z,1.90
2023-05-13T11:34:56.957Z,2.10
2023-05-13T11:38:27.601Z,1.80
2023-05-13T11:41:57.584Z,2.00
2023-05-13T11:45:26.210Z,2.50
2023-05-13T11:48:53.558Z,2.20
2023-05-13T11:52:21.831Z,2.20
2023-05-13T11:55:50.323Z,2.30
2023-05-13T11:59:18.644Z,2.20
2023-05-13T12:02:46.789Z,1.70
2023-05-13T12:06:13.417Z,1.80
2023-05-13T12:09:42.370Z,1.60
2023-05-13T12:13:09.832Z,2.00
2023-05-13T12:16:37.146Z,1.70
2023-05-13T12:20:16.375Z,2.00
2023-05-13T12:23:44.900Z,1.50
2023-05-13T12:27:14.670Z,1.90
2023-05-13T12:30:43.187Z,2.10
2023-05-13T12:34:09.899Z,2.00
2023-05-13T12:37:37.489Z,2.30
2023-05-13T12:41:18.630Z,1.50
2023-05-13T12:44:49.385Z,1.70
2023-05-13T12:48:16.316Z,2.50
2023-05-13T12:51:42.659Z,1.60
2023-05-13T12:55:13.362Z,1.60
2023-05-13T12:58:42.185Z,1.60
2023-05-13T13:02:09.408Z,1.60
2023-05-13T13:05:37.324Z,1.80
2023-05-13T13:09:04.451Z,1.90
2023-05-13T13:12:31.185Z,1.90
2023-05-13T13:15:58.233Z,2.10
2023-05-13T13:19:25.464Z,2.50
2023-05-13T13:22:52.408Z,1.90
2023-05-13T13:26:24.539Z,1.70
2023-05-13T13:29:51.863Z,1.90
2023-05-13T13:33:21.424Z,1.90
2023-05-13T13:36:48.493Z,2.10
2023-05-13T13:40:20.196Z,1.30
2023-05-13T13:43:50.607Z,1.10
2023-05-13T13:47:18.247Z,1.00
2023-05-13T13:50:47.729Z,1.00
2023-05-13T13:54:15.539Z,1.00
2023-05-13T13:57:42.681Z,1.10
2023-05-13T14:01:09.475Z,1.50
2023-05-13T14:04:37.325Z,1.60
2023-05-13T14:08:04.484Z,1.40
2023-05-13T14:11:30.945Z,1.20
2023-05-13T14:14:58.539Z,1.40
2023-05-13T14:18:31.658Z,1.30
2023-05-13T14:22:00.182Z,1.50
2023-05-13T14:25:31.551Z,1.40
2023-05-13T14:28:58.905Z,1.30
2023-05-13T14:32:27.313Z,1.50
2023-05-13T14:35:55.301Z,1.40
2023-05-13T14:39:27.129Z,1.30
2023-05-13T14:42:55.890Z,1.40
2023-05-13T14:46:24.868Z,1.50
2023-05-13T14:49:52.043Z,1.70
2023-05-13T14:53:24.939Z,1.60
2023-05-13T14:56:54.492Z,1.30
2023-05-13T15:00:25.185Z,1.50
2023-05-13T15:03:52.483Z,1.30
2023-05-13T15:07:21.542Z,1.50
2023-05-13T15:10:49.107Z,1.80
2023-05-13T15:14:18.524Z,1.60
2023-05-13T15:17:45.456Z,1.70
2023-05-13T15:21:12.455Z,1.60
2023-05-13T15:24:41.223Z,1.40
2023-05-13T15:28:10.647Z,1.60
2023-05-13T15:31:38.014Z,1.70
2023-05-13T15:35:05.382Z,1.40
2023-05-13T15:38:32.812Z,1.40
2023-05-13T15:42:01.121Z,1.60
2023-05-13T15:45:28.098Z,1.50
2023-05-13T15:48:55.720Z,1.40
2023-05-13T15:52:22.520Z,1.50
2023-05-13T15:55:49.488Z,1.70
2023-05-13T15:59:16.256Z,1.90
2023-05-13T16:02:44.627Z,2.00
2023-05-13T16:06:11.771Z,1.90
2023-05-13T16:09:38.824Z,1.40
2023-05-13T16:13:05.865Z,1.50
2023-05-13T16:16:32.718Z,1.60
2023-05-13T16:20:00.408Z,1.60
2023-05-13T16:23:27.846Z,2.00
2023-05-13T16:26:55.020Z,1.60
2023-05-13T16:30:23.013Z,1.70
2023-05-13T16:33:49.462Z,1.50
2023-05-13T16:37:18.120Z,1.60
2023-05-13T16:40:45.829Z,2.00
2023-05-13T16:44:14.054Z,2.00
2023-05-13T16:47:41.572Z,1.90
2023-05-13T16:51:08.959Z,1.80
2023-05-13T16:54:39.950Z,2.00
2023-05-13T16:58:07.304Z,1.80
2023-05-13T17:01:34.929Z,2.00
2023-05-13T17:05:03.171Z,2.20
2023-05-13T17:08:30.639Z,1.80
2023-05-13T17:11:58.105Z,2.30
2023-05-13T17:15:25.361Z,2.40
2023-05-13T17:18:52.995Z,2.00
2023-05-13T17:22:21.957Z,2.10
2023-05-13T17:25:51.566Z,1.90
2023-05-13T17:29:18.454Z,2.40
2023-05-13T17:32:48.429Z,2.00
2023-05-13T17:36:17.981Z,2.10
2023-05-13T17:39:52.225Z,2.50
2023-05-13T17:43:23.043Z,2.10
2023-05-13T17:46:51.911Z,2.20
2023-05-13T17:50:19.067Z,2.10
2023-05-13T17:53:47.508Z,2.40
2023-05-13T17:57:16.197Z,2.50
2023-05-13T18:00:43.224Z,3.30
2023-05-13T18:04:12.385Z,3.80
2023-05-13T18:07:39.808Z,3.80
2023-05-13T18:11:06.827Z,4.00
2023-05-13T18:14:34.138Z,4.30
2023-05-13T18:18:04.360Z,4.80
2023-05-13T18:21:32.074Z,4.60
2023-05-13T18:24:59.073Z,5.60
2023-05-13T18:28:27.636Z,9.30
2023-05-13T18:31:54.396Z,12.40
2023-05-13T18:35:21.727Z,10.60
2023-05-13T18:38:49.294Z,9.80
2023-05-13T18:42:16.582Z,11.30
2023-05-13T18:45:44.141Z,10.60
2023-05-13T18:49:11.944Z,9.50
2023-05-13T18:52:41.125Z,7.70
2023-05-13T18:56:08.539Z,7.00
2023-05-13T18:59:35.547Z,6.50
2023-05-13T19:03:02.498Z,6.20
2023-05-13T19:06:29.859Z,7.80
2023-05-13T19:09:56.719Z,6.90
2023-05-13T19:13:25.404Z,6.80
2023-05-13T19:16:58.117Z,8.80
2023-05-13T19:20:30.439Z,10.70
2023-05-13T19:23:58.872Z,7.40
2023-05-13T19:27:26.501Z,6.70
2023-05-13T19:30:53.378Z,6.30
2023-05-13T19:34:20.539Z,5.90
2023-05-13T19:37:47.474Z,5.20
2023-05-13T19:41:14.377Z,4.90
2023-05-13T19:44:41.301Z,5.30
2023-05-13T19:48:08.834Z,5.60
2023-05-13T19:51:37.580Z,5.40
2023-05-13T19:55:04.620Z,5.30
2023-05-13T19:58:31.726Z,13.50
2023-05-13T20:01:58.786Z,8.60
2023-05-13T20:05:26.258Z,11.10
2023-05-13T20:08:56.424Z,12.90
2023-05-13T20:12:23.982Z,11.10
2023-05-13T20:15:50.527Z,9.10
2023-05-13T20:19:18.499Z,6.70
2023-05-13T20:22:46.216Z,4.70
2023-05-13T20:26:13.726Z,4.90
2023-05-13T20:29:41.429Z,5.30
2023-05-13T20:33:08.427Z,5.10
2023-05-13T20:36:35.284Z,4.90
2023-05-13T20:40:02.629Z,5.50
2023-05-13T20:43:29.811Z,5.70
2023-05-13T20:46:56.697Z,5.00
2023-05-13T20:50:23.763Z,5.70
2023-05-13T20:53:50.875Z,5.60
2023-05-13T20:57:17.821Z,5.80
2023-05-13T21:00:46.128Z,6.10
2023-05-13T21:04:12.990Z,6.60
2023-05-13T21:07:42.415Z,6.30
2023-05-13T21:11:10.053Z,6.30
2023-05-13T21:14:37.699Z,6.60
2023-05-13T21:18:10.259Z,6.90
2023-05-13T21:25:04.480Z,7.60
2023-05-13T21:28:31.666Z,8.20
2023-05-13T21:32:01.471Z,7.80
2023-05-13T21:35:28.134Z,8.50
2023-05-13T21:38:57.059Z,9.00
2023-05-13T21:42:24.302Z,8.30
2023-05-13T21:45:55.288Z,7.70
2023-05-13T21:49:22.811Z,9.10
2023-05-13T21:52:51.313Z,8.30
2023-05-13T21:56:20.071Z,8.70
2023-05-13T21:59:49.940Z,8.40
2023-05-13T22:03:20.888Z,9.40
2023-05-13T22:06:49.788Z,9.00
2023-05-13T22:10:22.167Z,8.50
2023-05-13T22:13:53.657Z,8.90
2023-05-13T22:17:28.727Z,8.30
2023-05-13T22:21:00.583Z,7.80
2023-05-13T22:24:30.093Z,8.40
2023-05-13T22:27:58.401Z,8.80
2023-05-13T22:31:27.015Z,8.90
2023-05-13T22:34:54.387Z,9.10
2023-05-13T22:38:21.846Z,9.20
2023-05-13T22:41:49.483Z,9.30
2023-05-13T22:45:18.407Z,9.90
2023-05-13T22:48:46.276Z,10.30
2023-05-13T22:52:13.784Z,9.90
2023-05-13T22:55:41.041Z,9.70
2023-05-13T22:59:09.942Z,9.90
2023-05-13T23:02:38.373Z,10.70
2023-05-13T23:06:08.334Z,10.90
2023-05-13T23:09:35.946Z,10.70
2023-05-13T23:13:06.093Z,10.50
2023-05-13T23:16:38.541Z,9.00
2023-05-13T23:20:18.001Z,9.50
2023-05-13T23:23:45.215Z,9.70
2023-05-13T23:27:11.977Z,10.60
2023-05-13T23:30:39.742Z,11.00
2023-05-13T23:34:06.457Z,12.10
2023-05-13T23:37:33.548Z,12.50
2023-05-13T23:41:00.434Z,11.70
2023-05-13T23:44:27.306Z,11.50
2023-05-13T23:47:54.534Z,12.00
2023-05-13T23:51:21.276Z,11.30
2023-05-13T23:54:48.722Z,11.70
2023-05-13T23:58:26.388Z,10.80
